createdAt,value
2019-05-29T00:01:44.022Z,65.90
2019-05-29T00:04:19.666Z,63.50
2019-05-29T00:06:54.969Z,56.00
2019-05-29T00:09:32.071Z,42.60
2019-05-29T00:12:10.538Z,39.40
2019-05-29T00:14:49.428Z,42.60
2019-05-29T00:17:22.345Z,45.20
2019-05-29T00:19:58.182Z,39.60
2019-05-29T00:22:33.071Z,40.40
2019-05-29T00:25:10.495Z,37.60
2019-05-29T00:27:45.728Z,37.30
2019-05-29T00:30:21.426Z,37.70
2019-05-29T00:32:57.457Z,37.90
2019-05-29T00:35:35.014Z,37.40
2019-05-29T00:38:12.566Z,38.20
2019-05-29T00:40:49.822Z,38.80
2019-05-29T00:43:25.895Z,38.50
2019-05-29T00:46:01.690Z,39.40
2019-05-29T00:48:37.291Z,39.10
2019-05-29T00:51:13.003Z,39.70
2019-05-29T00:53:48.748Z,40.50
2019-05-29T00:56:26.209Z,39.30
2019-05-29T00:59:01.812Z,39.40
2019-05-29T01:01:37.764Z,38.60
2019-05-29T01:04:13.700Z,37.90
2019-05-29T01:06:49.487Z,39.10
2019-05-29T01:09:25.537Z,39.80
2019-05-29T01:12:01.293Z,39.90
2019-05-29T01:14:49.303Z,39.00
2019-05-29T01:17:13.715Z,40.20
2019-05-29T01:19:49.227Z,39.00
2019-05-29T01:22:25.079Z,39.60
2019-05-29T01:25:00.462Z,40.00
2019-05-29T01:27:36.846Z,37.50
2019-05-29T01:30:13.571Z,35.90
2019-05-29T01:32:49.957Z,36.70
2019-05-29T01:35:25.621Z,36.00
2019-05-29T01:38:03.323Z,35.10
2019-05-29T01:40:38.617Z,36.00
2019-05-29T01:43:15.333Z,36.00
2019-05-29T01:45:52.199Z,37.80
2019-05-29T01:48:28.232Z,37.30
2019-05-29T01:51:04.480Z,37.60
2019-05-29T01:53:40.700Z,37.70
2019-05-29T01:56:17.580Z,37.90
2019-05-29T01:58:53.053Z,37.80
2019-05-29T02:01:30.526Z,38.50
2019-05-29T02:04:05.934Z,37.70
2019-05-29T02:06:44.339Z,38.50
2019-05-29T02:09:22.127Z,38.10
2019-05-29T02:12:00.209Z,38.70
2019-05-29T02:14:43.940Z,36.00
2019-05-29T02:17:21.718Z,34.70
2019-05-29T02:19:57.122Z,35.50
2019-05-29T02:22:34.550Z,31.90
2019-05-29T02:25:15.690Z,33.10
2019-05-29T02:27:49.196Z,36.00
2019-05-29T02:30:30.287Z,32.40
2019-05-29T02:33:04.204Z,32.20
2019-05-29T02:35:39.576Z,31.30
2019-05-29T02:38:16.189Z,29.70
2019-05-29T02:40:51.984Z,29.90
2019-05-29T02:43:29.959Z,30.50
2019-05-29T02:46:07.569Z,28.30
2019-05-29T02:48:44.999Z,28.40
2019-05-29T02:51:24.018Z,28.10
2019-05-29T02:53:59.357Z,29.10
2019-05-29T02:56:36.398Z,28.60
2019-05-29T02:59:14.014Z,27.00
2019-05-29T03:01:51.483Z,28.40
2019-05-29T03:04:30.066Z,28.60
2019-05-29T03:07:09.856Z,28.20
2019-05-29T03:09:47.280Z,27.80
2019-05-29T03:12:27.180Z,28.00
2019-05-29T03:15:06.965Z,28.60
2019-05-29T03:17:47.459Z,27.10
2019-05-29T03:20:23.907Z,28.60
2019-05-29T03:23:00.879Z,28.00
2019-05-29T03:25:38.604Z,29.10
2019-05-29T03:28:16.744Z,27.90
2019-05-29T03:30:53.616Z,28.20
2019-05-29T03:33:36.102Z,27.70
2019-05-29T03:36:09.181Z,27.70
2019-05-29T03:38:44.592Z,29.70
2019-05-29T03:41:23.496Z,31.20
2019-05-29T03:43:58.903Z,31.70
2019-05-29T03:46:43.942Z,31.70
2019-05-29T03:49:14.553Z,32.50
2019-05-29T03:51:51.922Z,32.30
2019-05-29T03:54:30.564Z,32.30
2019-05-29T03:57:06.500Z,29.60
2019-05-29T03:59:46.281Z,32.40
2019-05-29T04:02:23.450Z,31.10
2019-05-29T04:05:01.691Z,27.50
2019-05-29T04:07:39.260Z,28.30
2019-05-29T04:10:16.872Z,28.60
2019-05-29T04:12:52.654Z,29.10
2019-05-29T04:15:31.497Z,29.70
2019-05-29T04:18:19.386Z,28.40
2019-05-29T04:20:56.516Z,28.30
2019-05-29T04:23:42.195Z,30.10
2019-05-29T04:26:23.333Z,30.00
2019-05-29T04:29:05.124Z,29.00
2019-05-29T04:31:40.982Z,29.20
2019-05-29T04:34:31.659Z,28.50
2019-05-29T04:37:11.088Z,28.80
2019-05-29T04:39:47.081Z,29.40
2019-05-29T04:42:28.889Z,29.10
2019-05-29T04:45:03.933Z,29.30
2019-05-29T04:47:41.333Z,29.80
2019-05-29T04:50:20.781Z,30.50
2019-05-29T04:53:16.400Z,30.70
2019-05-29T04:55:56.730Z,32.80
2019-05-29T04:58:34.907Z,32.70
2019-05-29T05:01:14.864Z,31.90
2019-05-29T05:03:54.901Z,33.30
2019-05-29T05:06:37.292Z,32.60
2019-05-29T05:09:16.107Z,31.50
2019-05-29T05:11:57.605Z,33.30
2019-05-29T05:14:35.656Z,32.10
2019-05-29T05:17:25.183Z,31.20
2019-05-29T05:19:51.122Z,30.50
2019-05-29T05:22:26.705Z,30.00
2019-05-29T05:25:14.785Z,31.70
2019-05-29T05:27:52.852Z,31.30
2019-05-29T05:30:32.331Z,30.70
2019-05-29T05:33:12.758Z,32.80
2019-05-29T05:35:53.585Z,31.00
2019-05-29T05:38:30.597Z,31.00
2019-05-29T05:41:07.478Z,31.90
2019-05-29T05:43:41.911Z,31.20
2019-05-29T05:46:17.620Z,31.70
2019-05-29T05:48:56.010Z,30.90
2019-05-29T05:51:42.781Z,32.80
2019-05-29T05:54:15.651Z,33.40
2019-05-29T05:57:00.116Z,33.00
2019-05-29T05:59:39.908Z,33.10
2019-05-29T06:02:19.985Z,32.70
2019-05-29T06:04:59.037Z,31.00
2019-05-29T06:07:40.249Z,31.60
2019-05-29T06:10:17.035Z,31.00
2019-05-29T06:12:54.654Z,32.30
2019-05-29T06:15:29.752Z,31.50
2019-05-29T06:18:20.419Z,31.40
2019-05-29T06:20:43.829Z,32.20
2019-05-29T06:23:20.978Z,30.00
2019-05-29T06:26:00.154Z,32.20
2019-05-29T06:28:35.544Z,32.30
2019-05-29T06:31:11.286Z,29.90
2019-05-29T06:33:48.288Z,31.40
2019-05-29T06:36:25.595Z,30.00
2019-05-29T06:39:05.991Z,30.50
2019-05-29T06:41:42.022Z,30.60
2019-05-29T06:44:18.769Z,32.20
2019-05-29T06:46:54.281Z,31.40
2019-05-29T06:49:31.707Z,32.40
2019-05-29T06:52:09.237Z,32.10
2019-05-29T06:54:45.347Z,29.40
2019-05-29T06:57:25.875Z,30.70
2019-05-29T07:00:09.281Z,30.20
2019-05-29T07:02:47.611Z,31.80
2019-05-29T07:05:25.055Z,32.70
2019-05-29T07:08:18.253Z,31.50
2019-05-29T07:10:52.089Z,30.00
2019-05-29T07:13:29.195Z,30.50
2019-05-29T07:16:14.528Z,31.60
2019-05-29T07:19:24.148Z,32.60
2019-05-29T07:21:26.992Z,30.90
2019-05-29T07:24:06.919Z,32.20
2019-05-29T07:26:45.467Z,31.30
2019-05-29T07:29:22.510Z,30.00
2019-05-29T07:32:00.129Z,29.30
2019-05-29T07:34:49.618Z,31.00
2019-05-29T07:37:14.120Z,30.30
2019-05-29T07:40:00.320Z,30.60
2019-05-29T07:42:39.424Z,30.00
2019-05-29T07:45:30.655Z,30.60
2019-05-29T07:48:12.804Z,29.90
2019-05-29T07:50:49.906Z,30.10
2019-05-29T07:53:26.215Z,31.00
2019-05-29T07:56:03.562Z,30.20
2019-05-29T07:58:41.994Z,32.30
2019-05-29T08:04:16.557Z,29.90
2019-05-29T08:06:55.077Z,30.70
2019-05-29T08:09:34.222Z,29.50
2019-05-29T08:12:10.072Z,28.70
2019-05-29T08:14:53.146Z,30.70
2019-05-29T08:17:30.577Z,30.50
2019-05-29T08:20:07.867Z,30.70
2019-05-29T08:22:48.555Z,29.50
2019-05-29T08:25:28.601Z,29.10
2019-05-29T08:28:03.705Z,29.70
2019-05-29T08:30:41.040Z,29.70
2019-05-29T08:33:18.121Z,29.70
2019-05-29T08:36:00.358Z,29.80
2019-05-29T08:38:37.207Z,30.30
2019-05-29T08:41:16.289Z,31.40
2019-05-29T08:43:54.236Z,30.00
2019-05-29T08:46:33.296Z,31.20
2019-05-29T08:49:10.952Z,30.40
2019-05-29T08:51:47.982Z,30.80
2019-05-29T08:54:25.188Z,29.30
2019-05-29T08:57:04.807Z,31.40
2019-05-29T08:59:44.340Z,30.20
2019-05-29T09:02:22.355Z,30.50
2019-05-29T09:04:58.566Z,29.50
2019-05-29T09:07:34.194Z,29.50
2019-05-29T09:10:13.180Z,30.80
2019-05-29T09:12:57.059Z,29.30
2019-05-29T09:15:27.322Z,30.40
2019-05-29T09:18:04.335Z,28.40
2019-05-29T09:21:01.759Z,28.10
2019-05-29T09:23:20.938Z,28.60
2019-05-29T09:26:13.595Z,27.10
2019-05-29T09:28:34.685Z,28.10
2019-05-29T09:31:10.416Z,28.60
2019-05-29T09:33:45.824Z,27.50
2019-05-29T09:36:24.824Z,27.70
2019-05-29T09:39:00.923Z,27.60
2019-05-29T09:41:37.622Z,27.50
2019-05-29T09:44:28.532Z,27.60
2019-05-29T09:46:56.472Z,28.00
2019-05-29T09:49:33.916Z,27.20
2019-05-29T09:52:13.426Z,28.10
2019-05-29T09:54:53.013Z,28.20
2019-05-29T09:57:32.529Z,28.50
2019-05-29T10:00:08.698Z,28.90
2019-05-29T10:02:46.665Z,27.90
2019-05-29T10:05:22.396Z,28.30
2019-05-29T10:07:59.639Z,28.70
2019-05-29T10:10:36.816Z,28.90
2019-05-29T10:13:12.957Z,29.10
2019-05-29T10:15:50.228Z,29.50
2019-05-29T10:18:32.484Z,31.00
2019-05-29T10:21:03.266Z,29.30
2019-05-29T10:23:39.320Z,31.90
2019-05-29T10:26:24.360Z,32.90
2019-05-29T10:29:08.258Z,33.30
2019-05-29T10:31:37.886Z,34.90
2019-05-29T10:34:15.662Z,35.90
2019-05-29T10:36:54.738Z,36.40
2019-05-29T10:39:32.459Z,36.90
2019-05-29T10:42:08.038Z,36.90
2019-05-29T10:44:44.883Z,37.00
2019-05-29T10:47:21.301Z,36.60
2019-05-29T10:49:59.125Z,36.10
2019-05-29T10:52:35.997Z,38.50
2019-05-29T10:55:13.201Z,38.50
2019-05-29T10:57:50.799Z,37.70
2019-05-29T11:00:27.266Z,37.70
2019-05-29T11:03:06.236Z,40.50
2019-05-29T11:06:01.160Z,41.10
2019-05-29T11:08:39.619Z,40.50
2019-05-29T11:11:20.740Z,42.20
2019-05-29T11:13:57.809Z,42.30
2019-05-29T11:16:39.612Z,43.30
2019-05-29T11:19:14.761Z,42.20
2019-05-29T11:21:59.571Z,42.90
2019-05-29T11:24:32.176Z,44.50
2019-05-29T11:27:11.261Z,45.00
2019-05-29T11:29:50.437Z,46.40
2019-05-29T11:32:27.232Z,47.10
2019-05-29T11:35:07.234Z,46.80
2019-05-29T11:37:47.198Z,48.10
2019-05-29T11:40:22.455Z,49.20
2019-05-29T11:42:59.917Z,48.70
2019-05-29T11:45:35.916Z,48.80
2019-05-29T11:48:12.523Z,50.40
2019-05-29T11:50:54.157Z,50.30
2019-05-29T11:53:30.286Z,49.80
2019-05-29T11:56:06.056Z,50.10
2019-05-29T11:58:43.789Z,50.40
2019-05-29T12:01:19.513Z,51.90
2019-05-29T12:04:18.110Z,51.90
2019-05-29T12:06:39.296Z,50.30
2019-05-29T12:09:32.246Z,51.60
2019-05-29T12:11:57.999Z,51.90
2019-05-29T12:14:58.276Z,52.10
2019-05-29T12:17:22.835Z,51.00
2019-05-29T12:19:59.807Z,52.10
2019-05-29T12:22:36.129Z,53.00
2019-05-29T12:25:13.281Z,52.70
2019-05-29T12:27:48.784Z,53.70
2019-05-29T12:30:28.256Z,52.00
2019-05-29T12:33:05.310Z,53.70
2019-05-29T12:35:41.846Z,52.30
2019-05-29T12:38:19.079Z,53.30
2019-05-29T12:40:57.698Z,54.00
2019-05-29T12:43:34.891Z,53.00
2019-05-29T12:46:12.645Z,53.50
2019-05-29T12:48:53.322Z,53.50
2019-05-29T12:51:31.602Z,53.30
2019-05-29T12:54:09.261Z,53.90
2019-05-29T12:56:51.410Z,55.00
2019-05-29T12:59:31.229Z,55.00
2019-05-29T13:02:21.469Z,54.00
2019-05-29T13:05:11.122Z,51.20
2019-05-29T13:07:43.020Z,51.50
2019-05-29T13:10:31.232Z,51.00
2019-05-29T13:13:11.718Z,51.70
2019-05-29T13:15:47.598Z,50.10
2019-05-29T13:18:29.632Z,48.80
2019-05-29T13:21:09.038Z,49.00
2019-05-29T13:23:49.903Z,49.20
2019-05-29T13:26:28.106Z,49.00
2019-05-29T13:29:07.797Z,48.70
2019-05-29T13:31:45.197Z,49.60
2019-05-29T13:34:24.626Z,48.30
2019-05-29T13:37:04.784Z,48.70
2019-05-29T13:39:42.295Z,48.90
2019-05-29T13:42:26.052Z,49.00
2019-05-29T13:45:06.743Z,49.00
2019-05-29T13:47:46.711Z,48.50
2019-05-29T13:50:28.737Z,49.20
2019-05-29T13:53:14.103Z,48.80
2019-05-29T13:55:54.845Z,49.00
2019-05-29T13:58:50.285Z,50.10
2019-05-29T14:01:38.258Z,49.70
2019-05-29T14:04:22.047Z,49.30
2019-05-29T14:06:58.500Z,49.60
2019-05-29T14:09:38.200Z,49.20
2019-05-29T14:12:21.347Z,49.30
2019-05-29T14:14:57.308Z,50.40
2019-05-29T14:17:38.062Z,50.00
2019-05-29T14:20:17.023Z,51.20
2019-05-29T14:23:01.246Z,49.60
2019-05-29T14:25:39.634Z,50.30
2019-05-29T14:28:19.339Z,52.70
2019-05-29T14:31:01.886Z,52.80
2019-05-29T14:33:48.314Z,53.00
2019-05-29T14:36:33.590Z,54.00
2019-05-29T14:39:13.580Z,53.60
2019-05-29T14:47:43.047Z,54.30
2019-05-29T14:50:30.261Z,55.10
2019-05-29T14:53:24.543Z,54.10
2019-05-29T14:56:02.528Z,52.90
2019-05-29T14:58:41.585Z,53.50
2019-05-29T15:01:21.879Z,54.70
2019-05-29T15:04:17.131Z,56.20
2019-05-29T15:06:59.034Z,56.20
2019-05-29T15:09:43.106Z,56.00
2019-05-29T15:12:31.603Z,56.90
2019-05-29T15:15:11.435Z,58.10
2019-05-29T15:17:52.872Z,55.80
2019-05-29T15:20:37.607Z,55.90
2019-05-29T15:23:20.897Z,55.70
2019-05-29T15:26:07.495Z,56.60
2019-05-29T15:28:47.947Z,56.70
2019-05-29T15:34:22.046Z,55.40
2019-05-29T15:36:57.450Z,55.90
2019-05-29T15:39:42.811Z,55.60
2019-05-29T15:42:32.553Z,57.20
2019-05-29T15:45:27.780Z,55.70
2019-05-29T15:51:21.740Z,56.80
2019-05-29T15:54:07.161Z,57.30
2019-05-29T15:56:52.886Z,54.00
2019-05-29T15:59:32.825Z,55.80
2019-05-29T16:02:20.484Z,57.20
2019-05-29T16:04:57.799Z,57.20
2019-05-29T16:07:40.580Z,58.60
2019-05-29T16:10:20.995Z,58.50
2019-05-29T16:12:58.581Z,57.90
2019-05-29T16:15:46.831Z,58.90
2019-05-29T16:18:29.043Z,58.90
2019-05-29T16:21:08.421Z,58.30
2019-05-29T16:23:49.955Z,57.90
2019-05-29T16:26:26.723Z,57.70
2019-05-29T16:32:08.169Z,60.90
2019-05-29T16:34:53.667Z,56.90
2019-05-29T16:37:30.829Z,57.80
2019-05-29T16:40:04.960Z,58.70
2019-05-29T16:42:58.033Z,58.60
2019-05-29T16:45:36.474Z,56.60
2019-05-29T16:48:22.710Z,56.70
2019-05-29T16:51:01.338Z,55.80
2019-05-29T16:53:37.852Z,55.40
2019-05-29T16:56:18.979Z,55.10
2019-05-29T16:59:03.735Z,55.30
2019-05-29T17:01:40.391Z,52.70
2019-05-29T17:04:16.147Z,54.10
2019-05-29T17:06:54.241Z,53.90
2019-05-29T17:09:31.906Z,53.30
2019-05-29T17:12:10.854Z,54.30
2019-05-29T17:14:50.689Z,53.50
2019-05-29T17:17:30.294Z,53.50
2019-05-29T17:20:09.157Z,53.10
2019-05-29T17:22:46.033Z,54.20
2019-05-29T17:28:22.498Z,53.20
2019-05-29T17:31:02.170Z,53.70
2019-05-29T17:33:36.012Z,52.50
2019-05-29T17:36:13.234Z,52.30
2019-05-29T17:38:51.197Z,52.40
2019-05-29T17:41:30.905Z,52.90
2019-05-29T17:44:07.911Z,53.60
2019-05-29T17:46:47.538Z,53.70
2019-05-29T17:49:33.037Z,54.20
2019-05-29T17:52:04.302Z,53.80
2019-05-29T17:54:44.840Z,53.00
2019-05-29T17:57:21.830Z,53.80
2019-05-29T17:59:58.915Z,53.60
2019-05-29T18:02:50.917Z,53.30
2019-05-29T18:05:11.783Z,53.50
2019-05-29T18:07:49.286Z,53.40
2019-05-29T18:10:25.703Z,53.20
2019-05-29T18:13:02.670Z,53.10
2019-05-29T18:15:39.655Z,53.50
2019-05-29T18:18:17.478Z,54.00
2019-05-29T18:20:50.448Z,53.10
2019-05-29T18:23:28.187Z,53.90
2019-05-29T18:26:05.469Z,54.00
2019-05-29T18:28:41.134Z,53.60
2019-05-29T18:31:16.561Z,53.50
2019-05-29T18:33:53.468Z,55.90
2019-05-29T18:36:29.690Z,56.40
2019-05-29T18:39:05.604Z,57.90
2019-05-29T18:41:41.026Z,59.10
2019-05-29T18:44:16.678Z,59.60
2019-05-29T18:46:56.804Z,59.80
2019-05-29T18:49:32.868Z,60.40
2019-05-29T18:52:10.248Z,58.80
2019-05-29T18:54:48.529Z,58.50
2019-05-29T18:57:25.393Z,59.30
2019-05-29T19:00:00.817Z,58.90
2019-05-29T19:02:37.288Z,59.30
2019-05-29T19:05:13.363Z,58.70
2019-05-29T19:07:50.407Z,58.20
2019-05-29T19:10:28.432Z,58.00
2019-05-29T19:13:05.545Z,57.00
2019-05-29T19:15:42.779Z,56.90
2019-05-29T19:18:19.743Z,56.20
2019-05-29T19:20:55.443Z,56.00
2019-05-29T19:23:30.884Z,56.40
2019-05-29T19:26:07.077Z,56.00
2019-05-29T19:28:42.642Z,56.90
2019-05-29T19:31:18.350Z,57.30
2019-05-29T19:33:53.837Z,57.00
2019-05-29T19:36:31.762Z,54.70
2019-05-29T19:39:11.752Z,53.90
2019-05-29T19:41:49.179Z,53.50
2019-05-29T19:44:26.664Z,52.70
2019-05-29T19:47:02.344Z,52.80
2019-05-29T19:49:38.936Z,52.20
2019-05-29T19:52:16.376Z,52.60
2019-05-29T19:54:52.383Z,54.00
2019-05-29T19:57:29.926Z,53.00
2019-05-29T20:00:06.625Z,53.50
2019-05-29T20:02:44.640Z,52.20
2019-05-29T20:05:22.087Z,51.30
2019-05-29T20:07:59.100Z,53.30
2019-05-29T20:10:35.382Z,54.70
2019-05-29T20:13:11.127Z,57.20
2019-05-29T20:15:48.256Z,59.30
2019-05-29T20:18:29.969Z,59.50
2019-05-29T20:21:06.994Z,62.00
2019-05-29T20:23:42.655Z,66.00
2019-05-29T20:26:18.129Z,67.40
2019-05-29T20:28:56.085Z,68.70
2019-05-29T20:31:32.385Z,68.90
2019-05-29T20:34:08.371Z,69.90
2019-05-29T20:36:43.792Z,69.90
2019-05-29T20:39:19.632Z,70.40
2019-05-29T20:41:55.002Z,71.30
2019-05-29T20:44:30.571Z,69.50
2019-05-29T20:47:06.289Z,72.30
2019-05-29T20:49:42.298Z,71.90
2019-05-29T20:52:17.725Z,71.70
2019-05-29T20:54:57.509Z,70.20
2019-05-29T20:57:30.094Z,71.50
2019-05-29T21:00:07.708Z,72.40
2019-05-29T21:02:43.260Z,72.60
2019-05-29T21:05:19.192Z,72.60
2019-05-29T21:07:54.574Z,72.70
2019-05-29T21:10:30.215Z,73.20
2019-05-29T21:13:05.477Z,73.20
2019-05-29T21:15:41.830Z,74.00
2019-05-29T21:18:17.327Z,74.30
2019-05-29T21:20:52.976Z,76.30
2019-05-29T21:23:28.513Z,76.00
2019-05-29T21:26:03.989Z,74.70
2019-05-29T21:28:44.680Z,73.40
2019-05-29T21:31:17.347Z,72.00
2019-05-29T21:33:52.829Z,71.30
2019-05-29T21:36:33.082Z,73.50
2019-05-29T21:39:10.239Z,73.70
2019-05-29T21:41:46.623Z,73.40
2019-05-29T21:44:21.913Z,72.40
2019-05-29T21:46:57.391Z,73.90
2019-05-29T21:49:32.765Z,74.80
2019-05-29T21:52:08.530Z,74.80
2019-05-29T21:54:45.692Z,73.80
2019-05-29T21:57:21.472Z,74.30
2019-05-29T21:59:56.888Z,74.40
2019-05-29T22:02:33.620Z,73.70
2019-05-29T22:05:10.274Z,73.70
2019-05-29T22:07:46.925Z,73.60
2019-05-29T22:10:25.956Z,74.20
2019-05-29T22:13:00.577Z,73.80
2019-05-29T22:15:34.179Z,74.20
2019-05-29T22:18:09.818Z,73.20
2019-05-29T22:20:45.433Z,73.90
2019-05-29T22:23:21.188Z,72.90
2019-05-29T22:25:57.386Z,71.60
2019-05-29T22:28:33.146Z,71.50
2019-05-29T22:31:08.719Z,71.30
2019-05-29T22:33:44.814Z,70.00
2019-05-29T22:36:20.250Z,70.00
2019-05-29T22:38:56.049Z,65.80
2019-05-29T22:41:31.623Z,63.70
2019-05-29T22:44:07.644Z,60.80
2019-05-29T22:46:43.058Z,59.20
2019-05-29T22:49:18.829Z,60.20
2019-05-29T22:51:55.653Z,57.00
2019-05-29T22:54:29.828Z,56.80
2019-05-29T22:57:05.269Z,56.00
2019-05-29T22:59:40.927Z,52.10
2019-05-29T23:02:16.516Z,52.20
2019-05-29T23:04:52.555Z,50.00
2019-05-29T23:07:28.131Z,51.00
2019-05-29T23:10:04.311Z,50.80
2019-05-29T23:12:39.998Z,51.10
2019-05-29T23:15:15.868Z,49.70
2019-05-29T23:17:52.333Z,50.20
2019-05-29T23:20:28.015Z,49.70
2019-05-29T23:23:03.599Z,48.40
2019-05-29T23:25:39.355Z,48.30
2019-05-29T23:28:14.908Z,48.30
2019-05-29T23:30:50.564Z,47.90
2019-05-29T23:33:26.144Z,45.60
2019-05-29T23:36:03.166Z,45.50
2019-05-29T23:38:38.747Z,45.80
2019-05-29T23:41:14.462Z,46.60
2019-05-29T23:43:50.022Z,45.50
2019-05-29T23:46:25.732Z,45.30
2019-05-29T23:49:05.587Z,45.30
2019-05-29T23:51:41.183Z,45.90
2019-05-29T23:54:16.889Z,46.80
2019-05-29T23:56:53.695Z,43.30
2019-05-29T23:59:28.990Z,44.60
